Time;durP1;ratioP1;P1;durP2;ratioP2;P2;SDS_P1;SDS_P2;PMS_P1;PMS_P2;Temp;Humidity;BMP_temperature;BMP_pressure;BME280_temperature;BME280_humidity;BME280_pressure;Samples;Min_cycle;Max_cycle;Signal;HPM_P1;HPM_P2
2022/07/29 00:02:13;;;;;;;11.35;7.80;;;;;;;21.53;83.67;98559.06;5118238;28;20036;-95
2022/07/29 00:04:40;;;;;;;10.18;7.63;;;;;;;21.39;84.61;98546.56;5118419;28;20111;-95
2022/07/29 00:07:06;;;;;;;10.32;7.60;;;;;;;21.50;84.19;98557.47;5118272;28;20043;-94
2022/07/29 00:09:32;;;;;;;8.98;7.43;;;;;;;21.45;84.79;98558.81;5117911;28;20036;-94
2022/07/29 00:12:00;;;;;;;10.85;7.72;;;;;;;21.21;85.21;98538.00;5117949;28;20079;-94
2022/07/29 00:14:26;;;;;;;10.60;7.97;;;;;;;21.18;85.39;98535.50;5117846;28;20044;-95
2022/07/29 00:16:52;;;;;;;11.10;7.25;;;;;;;21.25;85.16;98544.91;5116444;28;20036;-96
2022/07/29 00:19:18;;;;;;;10.07;7.25;;;;;;;21.22;85.54;98547.81;5116784;28;20044;-96
2022/07/29 00:21:45;;;;;;;11.20;7.20;;;;;;;21.32;85.19;98556.13;5116534;28;20511;-96
2022/07/29 00:24:11;;;;;;;10.43;7.10;;;;;;;21.17;84.68;98539.19;5116111;28;20040;-94
2022/07/29 00:26:36;;;;;;;8.75;7.07;;;;;;;21.24;85.59;98553.13;5115848;28;20069;-94
2022/07/29 00:29:04;;;;;;;10.73;7.43;;;;;;;21.19;85.85;98558.88;5115575;28;20124;-95
2022/07/29 00:31:30;;;;;;;9.43;7.13;;;;;;;21.15;86.65;98551.09;5115879;28;20104;-95
2022/07/29 00:33:56;;;;;;;10.32;7.38;;;;;;;21.04;86.33;98541.94;5116064;28;20043;-95
2022/07/29 00:36:22;;;;;;;10.52;7.35;;;;;;;21.05;86.59;98540.09;5116539;28;20086;-95
2022/07/29 00:38:50;;;;;;;10.43;7.68;;;;;;;21.10;86.53;98546.91;5116125;27;20074;-95
2022/07/29 00:41:17;;;;;;;10.93;7.68;;;;;;;20.96;87.21;98525.41;5116310;28;20048;-95
2022/07/29 00:43:43;;;;;;;15.10;7.65;;;;;;;20.97;87.04;98521.75;5116405;28;20074;-95
2022/07/29 00:46:10;;;;;;;14.23;8.25;;;;;;;20.98;87.85;98525.31;5116558;28;20142;-94
2022/07/29 00:48:35;;;;;;;10.93;8.00;;;;;;;20.96;87.49;98529.97;5116120;28;20060;-96
2022/07/29 00:51:03;;;;;;;10.65;7.72;;;;;;;21.08;88.13;98554.25;5115892;27;20044;-95
2022/07/29 00:53:30;;;;;;;10.43;7.57;;;;;;;20.99;87.34;98536.00;5116080;28;20050;-96
2022/07/29 00:55:57;;;;;;;11.82;8.05;;;;;;;20.93;87.83;98539.16;5116486;28;20036;-94
2022/07/29 00:58:24;;;;;;;12.63;8.45;;;;;;;20.98;87.78;98549.63;5116766;28;20035;-95
2022/07/29 01:00:49;;;;;;;10.05;7.60;;;;;;;20.92;87.80;98529.31;5116017;28;20556;-95
2022/07/29 01:03:16;;;;;;;12.48;8.15;;;;;;;20.94;88.03;98543.56;5115763;28;20043;-95
2022/07/29 01:05:44;;;;;;;11.20;8.30;;;;;;;20.94;88.31;98538.16;5115750;28;20131;-95
2022/07/29 01:08:12;;;;;;;12.30;8.83;;;;;;;20.87;89.28;98523.38;5115759;28;20039;-95
2022/07/29 01:10:39;;;;;;;12.15;8.35;;;;;;;20.91;88.87;98533.00;5115674;28;20051;-95
2022/07/29 01:13:07;;;;;;;12.38;8.13;;;;;;;20.97;88.30;98545.19;5115444;28;20040;-95
2022/07/29 01:15:37;;;;;;;13.70;8.05;;;;;;;20.99;88.48;98552.22;5115804;28;20040;-96
2022/07/29 01:18:10;;;;;;;12.95;9.63;;;;;;;20.89;88.21;98529.53;5115252;28;20488;-96
2022/07/29 01:20:52;;;;;;;12.75;8.15;;;;;;;20.95;88.25;98539.91;5115232;28;20036;-95
2022/07/29 01:23:47;;;;;;;11.23;7.88;;;;;;;20.98;88.43;98553.19;5115175;28;20051;-95
2022/07/29 01:26:29;;;;;;;13.27;8.75;;;;;;;20.89;89.04;98552.03;5115163;28;20517;-95
2022/07/29 01:29:12;;;;;;;14.38;8.48;;;;;;;20.89;89.24;98545.75;5115116;28;20419;-93
2022/07/29 01:31:47;;;;;;;12.63;8.23;;;;;;;20.95;89.22;98545.31;5115064;28;20036;-94
2022/07/29 01:34:23;;;;;;;11.45;8.75;;;;;;;20.90;89.99;98540.22;5116742;28;20044;-94
2022/07/29 01:36:55;;;;;;;11.68;8.23;;;;;;;20.74;90.33;98525.25;5116604;28;20051;-95
2022/07/29 01:39:27;;;;;;;13.85;8.55;;;;;;;20.79;90.35;98528.47;5115135;28;20062;-95
2022/07/29 01:41:59;;;;;;;11.25;8.20;;;;;;;20.83;90.07;98535.41;5115352;28;20047;-94
2022/07/29 01:44:32;;;;;;;12.80;8.13;;;;;;;20.70;90.90;98527.31;5116730;28;20400;-95
2022/07/29 01:47:02;;;;;;;11.15;8.35;;;;;;;20.68;90.62;98527.41;5116409;28;20044;-94
2022/07/29 01:49:31;;;;;;;11.45;8.15;;;;;;;20.66;91.01;98523.09;5115504;28;20427;-95
2022/07/29 01:52:00;;;;;;;10.10;8.38;;;;;;;20.73;90.59;98540.59;5117000;28;20051;-95
2022/07/29 01:54:34;;;;;;;12.18;8.48;;;;;;;20.53;91.19;98515.84;5116524;28;20044;-95
2022/07/29 01:57:01;;;;;;;12.85;8.65;;;;;;;20.62;91.34;98527.84;5116768;28;20100;-96
2022/07/29 01:59:29;;;;;;;12.65;8.82;;;;;;;20.52;91.94;98515.97;5116829;28;20074;-95
2022/07/29 02:01:59;;;;;;;12.10;8.55;;;;;;;20.62;91.85;98545.91;5117020;28;20039;-95
2022/07/29 02:04:27;;;;;;;16.02;9.27;;;;;;;20.66;92.21;98552.81;5116960;28;20430;-96
2022/07/29 02:06:54;;;;;;;;;;;;;;;20.67;92.12;98551.88;5116295;28;20043;-95
2022/07/29 02:09:23;;;;;;;13.00;9.35;;;;;;;20.60;92.07;98545.16;5114822;28;19919;-95
2022/07/29 02:11:53;;;;;;;13.30;9.70;;;;;;;20.49;93.31;98529.69;5115302;28;20072;-96
2022/07/29 02:14:21;;;;;;;13.75;8.90;;;;;;;20.49;93.18;98532.38;5118693;28;20584;-95
2022/07/29 02:16:52;;;;;;;14.20;9.35;;;;;;;20.44;93.54;98535.41;5119701;28;20040;-95
2022/07/29 02:19:19;;;;;;;13.10;9.77;;;;;;;;;;5118605;28;20050;-95
2022/07/29 02:21:47;;;;;;;13.02;9.45;;;;;;;20.36;93.48;98512.63;5118720;28;20035;-94
2022/07/29 02:24:15;;;;;;;14.98;9.55;;;;;;;20.33;93.93;98510.16;5118502;28;20048;-95
2022/07/29 02:26:44;;;;;;;13.27;9.80;;;;;;;20.47;94.51;98537.91;5118242;28;20043;-94
2022/07/29 02:29:12;;;;;;;15.45;9.95;;;;;;;20.39;94.85;98526.78;5119800;28;20431;-94
2022/07/29 02:31:43;;;;;;;12.50;9.77;;;;;;;20.40;96.13;98536.59;5120479;28;20044;-94
2022/07/29 02:34:12;;;;;;;13.35;9.18;;;;;;;20.35;95.49;98530.69;5120628;28;20123;-94
2022/07/29 02:36:39;;;;;;;13.52;8.95;;;;;;;20.31;94.66;98529.16;5118222;28;20090;-94
2022/07/29 02:39:07;;;;;;;12.25;8.90;;;;;;;20.27;94.76;98539.31;5118175;28;20067;-94
2022/07/29 02:41:40;;;;;;;11.48;9.05;;;;;;;20.17;94.96;98513.06;5118157;28;20066;-94
2022/07/29 02:44:09;;;;;;;11.93;9.48;;;;;;;20.27;95.35;98541.16;5118047;28;20043;-94
2022/07/29 02:46:37;;;;;;;13.68;9.40;;;;;;;20.30;95.84;98554.44;5117971;28;20492;-93
2022/07/29 02:49:16;;;;;;;11.77;8.63;;;;;;;20.28;96.79;98551.84;5118264;28;20055;-94
2022/07/29 02:51:46;;;;;;;13.18;8.85;;;;;;;20.14;96.31;98526.78;5117878;28;20036;-94
2022/07/29 02:54:22;;;;;;;13.57;9.15;;;;;;;20.13;96.28;98528.63;5117879;28;20053;-95
2022/07/29 02:56:49;;;;;;;13.57;9.05;;;;;;;20.08;96.78;98537.06;5118204;28;20404;-95
2022/07/29 02:59:21;;;;;;;12.13;8.95;;;;;;;19.96;97.27;98515.44;5119109;28;20066;-94
2022/07/29 03:01:47;;;;;;;12.55;9.20;;;;;;;20.04;96.98;98526.59;5119417;28;20105;-95
2022/07/29 03:04:16;;;;;;;14.10;9.65;;;;;;;19.95;97.08;98511.91;5118833;28;20043;-95
2022/07/29 03:06:43;;;;;;;;;;;;;;;20.14;97.49;98548.38;5120420;28;20057;-94
2022/07/29 03:09:10;;;;;;;11.57;8.40;;;;;;;20.01;97.31;98533.03;5119447;28;20371;-94
2022/07/29 03:11:37;;;;;;;11.20;7.95;;;;;;;19.90;96.41;98500.53;5120875;28;20096;-95
2022/07/29 03:14:05;;;;;;;11.35;8.93;;;;;;;20.00;96.87;98527.75;5118849;28;20056;-94
2022/07/29 03:16:35;;;;;;;11.32;9.57;;;;;;;20.10;98.52;98537.81;5117777;28;20089;-94
2022/07/29 03:19:02;;;;;;;11.85;8.68;;;;;;;20.02;97.68;98515.88;5117366;28;20051;-93
2022/07/29 03:21:30;;;;;;;14.32;9.15;;;;;;;20.15;97.68;98536.63;5117290;28;20071;-94
2022/07/29 03:23:55;;;;;;;13.15;8.70;;;;;;;20.10;96.89;98536.94;5117072;28;20043;-93
2022/07/29 03:26:22;;;;;;;12.38;8.95;;;;;;;20.07;96.94;98529.06;5118843;28;20064;-94
2022/07/29 03:28:48;;;;;;;12.10;8.70;;;;;;;20.02;96.53;98534.78;5120182;28;20051;-94
2022/07/29 03:31:13;;;;;;;10.73;8.45;;;;;;;19.94;95.81;98528.19;5120938;27;20042;-94
2022/07/29 03:33:39;;;;;;;11.50;8.57;;;;;;;19.93;96.77;98538.13;5120800;28;20043;-94
2022/07/29 03:36:05;;;;;;;12.55;8.93;;;;;;;19.81;96.77;98531.72;5119841;28;20043;-94
2022/07/29 03:38:35;;;;;;;14.57;8.77;;;;;;;19.68;97.32;98523.56;5119466;28;20039;-94
2022/07/29 03:41:05;;;;;;;13.18;9.52;;;;;;;19.53;98.45;98512.97;5120012;28;20481;-94
2022/07/29 03:43:36;;;;;;;12.95;8.82;;;;;;;19.54;97.89;98511.97;5120258;28;20407;-93
2022/07/29 03:46:04;;;;;;;14.05;9.32;;;;;;;19.57;98.01;98526.13;5118671;28;20078;-93
2022/07/29 03:48:33;;;;;;;11.60;9.13;;;;;;;19.67;97.91;98535.34;5117779;28;20043;-94
2022/07/29 03:50:59;;;;;;;10.98;8.80;;;;;;;19.65;98.53;98542.66;5118229;28;20035;-94
2022/07/29 03:53:25;;;;;;;11.75;8.85;;;;;;;19.62;98.69;98545.56;5119240;28;20042;-94
2022/07/29 03:55:57;;;;;;;13.07;9.30;;;;;;;19.45;99.02;98511.66;5121511;28;20040;-95
2022/07/29 03:58:26;;;;;;;12.35;8.57;;;;;;;19.57;99.44;98527.97;5122954;28;20040;-95
2022/07/29 04:00:53;;;;;;;14.07;9.63;;;;;;;19.71;98.97;98546.81;5121957;28;20050;-95
2022/07/29 04:03:20;;;;;;;12.90;9.00;;;;;;;19.73;99.18;98550.25;5119080;28;20047;-95
2022/07/29 04:05:58;;;;;;;12.43;9.50;;;;;;;19.61;97.96;98532.19;5118220;28;20050;-94
2022/07/29 04:08:23;;;;;;;11.60;8.48;;;;;;;19.61;97.35;98532.19;5120162;27;20035;-94
2022/07/29 04:10:49;;;;;;;13.75;9.27;;;;;;;19.64;97.77;98551.72;5117484;28;20557;-93
2022/07/29 04:13:17;;;;;;;14.68;10.25;;;;;;;19.59;99.12;98536.84;5116387;28;20047;-93
2022/07/29 04:15:43;;;;;;;16.55;10.50;;;;;;;19.76;98.69;98573.50;5116633;28;20050;-94
2022/07/29 04:18:09;;;;;;;16.90;10.07;;;;;;;19.58;98.36;98540.47;5117917;28;20039;-93
2022/07/29 04:20:35;;;;;;;14.68;10.68;;;;;;;19.56;99.02;98542.41;5117349;28;20105;-94
2022/07/29 04:23:01;;;;;;;14.93;10.85;;;;;;;19.64;98.92;98558.94;5119159;28;20044;-94
2022/07/29 04:25:26;;;;;;;16.60;10.82;;;;;;;19.63;99.20;98555.41;5119462;28;20046;-94
2022/07/29 04:27:59;;;;;;;16.15;10.70;;;;;;;19.63;98.96;98541.06;5117838;28;20561;-95
2022/07/29 04:30:27;;;;;;;19.85;10.80;;;;;;;19.79;98.55;98560.63;5118491;28;20062;-94
2022/07/29 04:32:53;;;;;;;14.35;10.05;;;;;;;19.79;98.26;98559.78;5115706;28;20131;-93
2022/07/29 04:35:18;;;;;;;15.23;9.93;;;;;;;19.83;97.39;98567.56;5116054;28;20071;-94
2022/07/29 04:37:44;;;;;;;15.88;10.10;;;;;;;19.78;98.32;98552.63;5117652;28;20519;-94
2022/07/29 04:40:11;;;;;;;15.15;10.05;;;;;;;19.91;97.84;98569.75;5115857;28;20089;-95
2022/07/29 04:42:37;;;;;;;12.45;9.40;;;;;;;20.02;98.39;98587.91;5116504;28;20051;-94
2022/07/29 04:45:04;;;;;;;16.27;9.60;;;;;;;20.02;98.76;98586.06;5116308;28;20395;-94
2022/07/29 04:47:31;;;;;;;14.43;9.23;;;;;;;20.13;98.07;98584.47;5117028;28;20047;-93
2022/07/29 04:49:57;;;;;;;14.13;8.98;;;;;;;20.03;98.36;98557.22;5119288;28;20038;-94
2022/07/29 04:52:22;;;;;;;13.80;9.60;;;;;;;20.05;98.40;98561.53;5117344;28;20043;-93
2022/07/29 04:54:48;;;;;;;13.40;9.13;;;;;;;20.09;97.16;98560.38;5115792;28;20439;-93
2022/07/29 04:57:14;;;;;;;13.85;10.02;;;;;;;20.23;98.28;98590.94;5115304;28;20036;-93
2022/07/29 04:59:40;;;;;;;14.80;10.00;;;;;;;20.19;98.23;98590.31;5115128;28;20044;-94
2022/07/29 05:02:06;;;;;;;14.30;10.75;;;;;;;20.25;98.77;98597.09;5117190;28;20043;-94
2022/07/29 05:04:33;;;;;;;13.82;9.40;;;;;;;20.08;98.82;98569.44;5118621;28;20078;-94
2022/07/29 05:06:59;;;;;;;12.15;9.52;;;;;;;20.27;98.84;98587.06;5117093;28;20051;-94
2022/07/29 05:09:25;;;;;;;14.27;10.05;;;;;;;20.30;98.35;98593.13;5117422;28;20580;-94
2022/07/29 05:11:51;;;;;;;17.17;10.38;;;;;;;20.55;97.66;98607.59;5119705;28;20032;-93
2022/07/29 05:14:16;;;;;;;13.15;9.32;;;;;;;20.99;95.39;98594.59;5117284;28;20069;-94
2022/07/29 05:16:43;;;;;;;12.98;9.98;;;;;;;21.57;89.27;98584.06;5118120;28;20104;-94
2022/07/29 05:19:09;;;;;;;12.68;9.25;;;;;;;22.11;85.35;98599.78;5117459;28;20071;-94
2022/07/29 05:21:36;;;;;;;15.13;9.05;;;;;;;22.24;84.90;98584.34;5121444;28;20032;-94
2022/07/29 05:24:02;;;;;;;12.85;9.15;;;;;;;22.41;82.88;98583.00;5123232;28;20097;-94
2022/07/29 05:26:28;;;;;;;10.82;8.88;;;;;;;22.65;80.74;98582.06;5124889;28;20180;-94
2022/07/29 05:28:54;;;;;;;11.48;8.30;;;;;;;22.83;79.75;98596.84;5118879;28;20492;-93
2022/07/29 05:31:20;;;;;;;13.05;8.70;;;;;;;22.87;80.29;98601.03;5116663;28;20166;-94
2022/07/29 05:33:46;;;;;;;12.25;8.43;;;;;;;22.91;80.20;98588.09;5115163;28;20108;-94
2022/07/29 05:36:12;;;;;;;12.82;9.05;;;;;;;23.03;78.98;98607.97;5117721;28;20039;-95
2022/07/29 05:38:39;;;;;;;16.00;10.30;;;;;;;22.75;80.45;98604.75;5115077;28;20054;-94
2022/07/29 05:41:05;;;;;;;14.30;10.15;;;;;;;23.05;79.01;98608.69;5116053;28;20048;-95
2022/07/29 05:43:31;;;;;;;13.55;8.73;;;;;;;23.42;77.44;98620.13;5116069;28;20046;-93
2022/07/29 05:45:57;;;;;;;12.40;8.70;;;;;;;23.63;76.69;98625.63;5114706;28;20040;-92
2022/07/29 05:48:23;;;;;;;10.00;7.80;;;;;;;23.72;76.11;98626.72;5115580;28;20480;-94
2022/07/29 05:50:49;;;;;;;10.45;8.57;;;;;;;23.61;76.89;98608.59;5115390;28;20047;-93
2022/07/29 05:53:15;;;;;;;11.93;8.02;;;;;;;23.75;75.14;98626.47;5121796;28;20046;-94
2022/07/29 05:55:43;;;;;;;13.77;8.55;;;;;;;23.84;76.57;98639.28;5120502;28;20561;-93
2022/07/29 05:58:08;;;;;;;11.02;8.55;;;;;;;23.85;75.34;98638.28;5120794;28;20046;-95
2022/07/29 06:00:34;;;;;;;12.13;8.18;;;;;;;23.71;75.67;98606.00;5122793;28;20036;-95
2022/07/29 06:03:01;;;;;;;14.48;8.57;;;;;;;23.97;74.56;98626.41;5122553;28;20052;-94
2022/07/29 06:05:27;;;;;;;11.07;8.80;;;;;;;24.15;73.54;98613.09;5123111;28;20043;-94
2022/07/29 06:07:53;;;;;;;12.55;9.18;;;;;;;24.14;73.17;98615.97;5118231;28;20096;-96
2022/07/29 06:10:19;;;;;;;12.15;9.45;;;;;;;24.33;72.64;98627.00;5117836;28;20454;-94
2022/07/29 06:12:46;;;;;;;10.00;8.30;;;;;;;23.95;74.15;98605.81;5120594;28;20039;-94
2022/07/29 06:15:11;;;;;;;11.50;9.30;;;;;;;24.07;74.21;98625.63;5122984;28;20043;-96
2022/07/29 06:17:37;;;;;;;13.32;9.40;;;;;;;23.96;74.71;98624.69;5120357;28;20506;-95
2022/07/29 06:20:04;;;;;;;11.52;9.23;;;;;;;24.07;74.94;98631.06;5119017;28;20089;-93
2022/07/29 06:22:30;;;;;;;14.38;9.40;;;;;;;23.92;75.20;98634.09;5118503;28;20127;-94
2022/07/29 06:24:56;;;;;;;12.07;9.13;;;;;;;24.20;73.07;98637.16;5119409;28;20068;-94
2022/07/29 06:27:21;;;;;;;11.55;9.00;;;;;;;24.22;74.52;98640.59;5118779;28;20059;-94
2022/07/29 06:29:49;;;;;;;11.90;8.93;;;;;;;24.36;73.27;98625.84;5118245;28;20108;-93
2022/07/29 06:32:14;;;;;;;14.48;8.70;;;;;;;24.51;72.36;98624.56;5117833;28;20039;-93
2022/07/29 06:34:40;;;;;;;12.40;8.60;;;;;;;24.44;71.96;98612.47;5118095;28;20042;-93
2022/07/29 14:19:35;;;;;;;7.55;5.95;;;;;;;35.13;29.02;98324.00;5123784;27;20385;-95
2022/07/29 14:22:01;;;;;;;;;;;;;;;34.87;28.91;98336.66;5089567;28;20162;-92
2022/07/29 14:24:27;;;;;;;9.85;6.18;;;;;;;35.04;29.04;98333.50;5090982;28;19921;-91
2022/07/29 14:26:53;;;;;;;11.13;6.30;;;;;;;35.32;28.83;98317.63;5091030;28;20059;-91
2022/07/29 14:29:19;;;;;;;9.38;6.15;;;;;;;35.02;29.52;98324.56;5090169;28;20077;-92
2022/07/29 14:31:44;;;;;;;10.10;6.32;;;;;;;34.64;29.09;98311.31;5092357;28;20032;-93
2022/07/29 14:34:10;;;;;;;11.15;5.97;;;;;;;34.75;29.14;98319.00;5090177;28;20075;-93
2022/07/29 14:36:37;;;;;;;9.50;5.90;;;;;;;35.09;28.66;98304.19;5090860;28;20047;-93
2022/07/29 14:39:03;;;;;;;9.10;6.18;;;;;;;34.91;29.11;98299.25;5090794;28;20451;-93
2022/07/29 14:41:30;;;;;;;12.82;6.75;;;;;;;35.05;28.55;98299.31;5092551;28;20504;-93
2022/07/29 14:43:56;;;;;;;9.60;6.20;;;;;;;35.23;28.61;98293.19;5093223;28;20070;-93
2022/07/29 14:46:22;;;;;;;8.80;5.80;;;;;;;35.01;28.83;98301.63;5092811;28;20040;-93
2022/07/29 14:48:48;;;;;;;8.23;6.13;;;;;;;34.87;29.36;98292.44;5090257;28;20048;-92
2022/07/29 14:51:14;;;;;;;10.93;6.57;;;;;;;34.58;30.55;98304.66;5088959;28;20460;-96
2022/07/29 14:53:41;;;;;;;9.68;6.03;;;;;;;34.24;30.58;98305.59;5091714;28;20774;-94
2022/07/29 14:56:07;;;;;;;10.07;6.53;;;;;;;34.22;30.73;98327.84;5089831;28;20094;-94
2022/07/29 14:58:33;;;;;;;9.23;6.18;;;;;;;34.05;30.88;98315.41;5089790;28;20040;-93
2022/07/29 15:00:59;;;;;;;8.85;5.65;;;;;;;33.96;31.16;98300.94;5090538;28;20251;-93
2022/07/29 15:03:24;;;;;;;11.65;6.25;;;;;;;33.98;31.31;98307.09;5089307;28;20032;-94
2022/07/29 15:05:51;;;;;;;9.35;6.20;;;;;;;33.95;30.51;98313.88;5089796;28;20040;-94
2022/07/29 15:08:16;;;;;;;10.05;5.85;;;;;;;33.72;31.15;98303.16;5085236;28;20497;-93
2022/07/29 15:10:44;;;;;;;9.88;6.00;;;;;;;33.67;30.63;98297.38;5090439;28;20127;-94
2022/07/29 15:13:10;;;;;;;8.63;5.88;;;;;;;33.62;30.45;98308.16;5091659;28;20608;-93
2022/07/29 15:15:35;;;;;;;9.63;6.30;;;;;;;33.41;30.57;98295.22;5090234;28;20126;-90
2022/07/29 15:18:05;;;;;;;8.15;5.47;;;;;;;33.25;30.02;98290.84;5088347;28;20036;-90
2022/07/29 15:20:31;;;;;;;9.50;5.40;;;;;;;33.07;29.87;98279.44;5077684;28;20044;-92
2022/07/29 15:22:58;;;;;;;7.63;5.30;;;;;;;33.02;29.96;98273.66;5078231;28;20043;-92
2022/07/29 15:25:25;;;;;;;12.77;6.18;;;;;;;32.63;33.11;98259.28;5078575;28;20033;-92
2022/07/29 15:27:52;;;;;;;12.82;5.90;;;;;;;32.54;36.16;98272.31;5077369;28;20041;-93
2022/07/29 15:30:18;;;;;;;12.23;6.10;;;;;;;32.31;35.78;98279.81;5074991;28;20033;-94
2022/07/29 15:32:44;;;;;;;9.70;6.35;;;;;;;32.13;33.86;98283.84;5077652;28;20043;-90
2022/07/29 15:35:10;;;;;;;8.25;5.40;;;;;;;31.77;33.77;98282.88;5078654;28;20052;-93
2022/07/29 15:37:36;;;;;;;7.70;5.45;;;;;;;31.44;34.70;98263.97;5080436;28;20036;-94
2022/07/29 15:40:02;;;;;;;8.40;5.80;;;;;;;31.39;34.64;98281.00;5081646;28;20105;-95
2022/07/29 15:42:28;;;;;;;11.05;5.93;;;;;;;31.31;35.37;98284.66;5080685;28;20072;-94
2022/07/29 15:44:56;;;;;;;10.23;6.10;;;;;;;31.26;35.34;98280.78;5078359;28;20041;-95
2022/07/29 15:47:22;;;;;;;11.02;6.20;;;;;;;31.31;35.24;98320.38;5080930;28;20044;-95
2022/07/29 15:49:48;;;;;;;10.93;6.78;;;;;;;30.57;40.79;98325.53;5078415;28;20037;-93
2022/07/29 15:52:15;;;;;;;14.70;6.20;;;;;;;30.10;42.45;98343.72;5079308;28;20097;-95
2022/07/29 15:54:41;;;;;;;13.88;6.22;;;;;;;29.76;44.07;98329.41;5077692;28;20052;-93
2022/07/29 15:57:08;;;;;;;14.38;6.93;;;;;;;29.48;45.72;98348.94;5079996;28;20036;-95
2022/07/29 15:59:34;;;;;;;12.77;6.80;;;;;;;28.98;45.56;98353.50;5081543;28;20113;-95
2022/07/29 16:02:02;;;;;;;11.80;6.47;;;;;;;28.57;47.62;98367.09;5079840;28;20084;-94
2022/07/29 16:04:27;;;;;;;10.30;5.80;;;;;;;28.38;47.01;98370.91;5079376;28;20037;-95
2022/07/29 16:06:53;;;;;;;13.25;6.30;;;;;;;28.17;47.48;98384.16;5077125;28;20155;-94
2022/07/29 16:09:19;;;;;;;9.88;6.03;;;;;;;27.77;52.05;98385.59;5076496;28;20119;-91
2022/07/29 16:11:47;;;;;;;13.80;6.10;;;;;;;27.55;53.60;98379.63;5075297;28;20607;-94
2022/07/29 16:14:13;;;;;;;10.23;6.30;;;;;;;27.72;54.12;98357.91;5073479;28;20075;-93
2022/07/29 16:16:40;;;;;;;12.07;5.78;;;;;;;27.88;53.98;98392.69;5074261;28;20060;-94
2022/07/29 16:19:08;;;;;;;11.63;6.63;;;;;;;27.40;53.95;98389.41;5073185;28;20106;-93
2022/07/29 16:21:34;;;;;;;10.85;5.95;;;;;;;27.50;53.84;98371.06;5074785;28;20079;-94
2022/07/29 16:24:01;;;;;;;10.30;6.25;;;;;;;27.67;51.75;98352.91;5075265;28;20067;-94
2022/07/29 16:26:27;;;;;;;10.13;5.95;;;;;;;28.12;49.10;98356.44;5075237;28;20423;-94
2022/07/29 16:28:53;;;;;;;8.85;5.68;;;;;;;28.63;48.33;98358.22;5075117;28;20041;-94
2022/07/29 16:31:21;;;;;;;8.63;5.22;;;;;;;29.05;46.67;98342.75;5074124;28;20437;-95
2022/07/29 16:33:47;;;;;;;8.73;5.45;;;;;;;29.42;43.45;98336.78;5075197;28;20036;-92
2022/07/29 16:36:15;;;;;;;7.60;5.55;;;;;;;29.75;42.01;98334.03;5075338;28;20066;-94
2022/07/29 16:38:41;;;;;;;7.43;5.63;;;;;;;30.09;41.47;98357.59;5076057;28;20094;-94
2022/07/29 16:41:06;;;;;;;7.07;5.30;;;;;;;30.20;41.51;98353.63;5074657;28;20044;-95
2022/07/29 16:43:32;;;;;;;10.30;5.20;;;;;;;30.14;40.93;98343.34;5076472;28;20104;-93
2022/07/29 16:45:58;;;;;;;7.43;4.88;;;;;;;30.23;40.23;98353.25;5077849;28;20045;-93
2022/07/29 16:48:24;;;;;;;5.65;4.35;;;;;;;30.21;38.70;98364.41;5076497;28;20402;-96
2022/07/29 16:50:50;;;;;;;7.57;4.65;;;;;;;30.04;39.19;98355.38;5079891;28;20120;-93
2022/07/29 16:53:17;;;;;;;7.25;4.50;;;;;;;29.99;40.29;98376.97;5079338;28;20551;-92
2022/07/29 16:55:43;;;;;;;6.03;4.10;;;;;;;29.88;39.57;98389.19;5076919;28;20064;-94
2022/07/29 16:58:11;;;;;;;5.50;4.00;;;;;;;29.88;39.38;98394.66;5080243;28;20047;-96
2022/07/29 17:00:37;;;;;;;6.83;4.50;;;;;;;29.81;38.65;98384.56;5079466;28;20037;-94
2022/07/29 17:03:04;;;;;;;5.32;4.03;;;;;;;29.89;37.56;98398.25;5081291;28;20051;-95
2022/07/29 17:05:30;;;;;;;7.15;4.40;;;;;;;29.87;36.65;98386.59;5077906;28;20052;-94
2022/07/29 17:07:57;;;;;;;8.38;4.10;;;;;;;29.84;37.07;98381.44;5078503;28;20402;-95
2022/07/29 17:10:25;;;;;;;7.97;4.43;;;;;;;29.81;37.67;98388.16;5077284;28;20036;-93
2022/07/29 17:12:51;;;;;;;;;;;;;;;29.90;38.16;98398.06;5076872;28;20049;-93
2022/07/29 17:15:18;;;;;;;6.88;4.78;;;;;;;29.86;38.69;98384.88;5079276;28;19966;-94
2022/07/29 17:17:45;;;;;;;12.68;6.88;;;;;;;29.77;38.66;98366.75;5080046;28;20071;-95
2022/07/29 17:20:12;;;;;;;8.20;5.10;;;;;;;29.72;39.82;98363.69;5078421;28;20055;-93
2022/07/29 17:22:39;;;;;;;8.15;4.80;;;;;;;29.73;39.60;98377.19;5077100;28;20150;-95
2022/07/29 17:25:06;;;;;;;10.25;5.53;;;;;;;29.72;40.09;98380.13;5077623;28;20047;-96
2022/07/29 17:27:34;;;;;;;7.32;5.00;;;;;;;29.73;40.33;98401.00;5075890;28;20431;-92
2022/07/29 17:30:00;;;;;;;9.70;5.80;;;;;;;29.80;40.52;98404.78;5073908;28;20219;-95
2022/07/29 17:32:26;;;;;;;7.60;5.20;;;;;;;29.69;40.79;98401.38;5073879;28;20378;-94
2022/07/29 17:34:52;;;;;;;8.45;5.20;;;;;;;29.65;40.79;98399.13;5074994;28;20131;-93
2022/07/29 17:37:18;;;;;;;9.65;5.07;;;;;;;29.48;41.41;98396.38;5074033;28;20063;-92
2022/07/29 17:39:44;;;;;;;9.43;5.28;;;;;;;29.48;41.36;98415.53;5075463;28;20119;-94
2022/07/29 17:42:12;;;;;;;8.15;5.15;;;;;;;29.32;42.55;98415.56;5075590;28;20071;-93
2022/07/29 17:44:40;;;;;;;9.45;4.88;;;;;;;29.33;42.04;98428.19;5077967;28;20549;-95
2022/07/29 17:47:06;;;;;;;7.15;5.35;;;;;;;29.27;42.11;98424.25;5077475;28;20441;-94
2022/07/29 17:49:32;;;;;;;7.07;5.28;;;;;;;29.15;43.48;98425.63;5076911;28;20113;-96
2022/07/29 17:51:58;;;;;;;8.30;5.28;;;;;;;28.97;43.58;98408.41;5077659;28;20079;-95
2022/07/29 17:54:24;;;;;;;8.00;5.78;;;;;;;28.85;44.49;98429.78;5079784;28;20075;-96
2022/07/29 17:56:50;;;;;;;9.05;5.15;;;;;;;28.73;45.10;98420.16;5080431;28;20053;-95
2022/07/29 17:59:16;;;;;;;8.57;5.68;;;;;;;28.78;44.91;98435.06;5079133;28;20370;-95
2022/07/29 18:01:43;;;;;;;8.27;5.78;;;;;;;28.65;45.72;98427.31;5078916;28;20047;-95
2022/07/29 18:04:10;;;;;;;8.38;5.47;;;;;;;28.52;46.57;98420.56;5078664;28;20076;-96
2022/07/29 18:06:36;;;;;;;7.65;5.13;;;;;;;28.51;46.66;98433.41;5077399;28;20544;-95
2022/07/29 18:09:02;;;;;;;14.75;6.55;;;;;;;28.45;46.89;98434.03;5077721;28;20071;-96
2022/07/29 18:11:30;;;;;;;10.10;5.93;;;;;;;28.42;46.49;98448.03;5060048;28;20095;-96
2022/07/29 18:13:56;;;;;;;12.48;6.10;;;;;;;28.30;46.96;98438.38;5058222;28;20049;-94
2022/07/29 18:16:22;;;;;;;8.88;5.70;;;;;;;28.31;47.29;98440.97;5059621;28;20056;-95
2022/07/29 18:18:50;;;;;;;7.30;5.38;;;;;;;28.22;47.51;98440.06;5060630;28;20053;-95
2022/07/29 18:21:16;;;;;;;6.95;5.03;;;;;;;28.26;48.08;98460.59;5060861;28;20049;-95
2022/07/29 18:23:41;;;;;;;8.48;5.45;;;;;;;28.07;48.24;98449.88;5059063;28;20053;-96
2022/07/29 18:26:08;;;;;;;10.15;6.03;;;;;;;28.04;48.50;98459.28;5060022;28;20049;-95
2022/07/29 18:28:34;;;;;;;9.50;5.93;;;;;;;27.86;49.45;98452.97;5059853;28;20045;-96
2022/07/29 18:31:01;;;;;;;9.38;6.30;;;;;;;27.68;49.64;98446.66;5062476;28;20122;-95
2022/07/29 18:33:27;;;;;;;14.77;7.32;;;;;;;27.60;49.79;98436.50;5061873;28;20049;-96
2022/07/29 18:35:54;;;;;;;13.45;7.60;;;;;;;27.39;50.87;98447.75;5062196;28;20053;-96
2022/07/29 18:38:21;;;;;;;14.73;8.03;;;;;;;27.18;51.18;98451.63;5060422;28;20067;-96
2022/07/29 18:40:47;;;;;;;16.33;10.18;;;;;;;26.87;52.04;98436.59;5062134;28;20051;-95
2022/07/29 18:43:14;;;;;;;42.78;27.42;;;;;;;26.69;53.18;98455.66;5060600;28;20506;-94
2022/07/29 18:45:40;;;;;;;26.48;15.88;;;;;;;26.58;53.22;98452.13;5060938;28;20037;-96
2022/07/29 18:48:07;;;;;;;22.13;10.85;;;;;;;26.63;53.97;98485.28;5058632;28;20071;-96
2022/07/29 18:50:33;;;;;;;18.42;9.70;;;;;;;26.44;54.15;98479.88;5058745;28;20021;-96
2022/07/29 18:53:02;;;;;;;13.63;8.63;;;;;;;26.36;54.46;98477.03;5057289;28;20178;-95
2022/07/29 18:55:28;;;;;;;15.15;8.60;;;;;;;26.29;54.43;98467.72;5060341;28;20098;-96
2022/07/29 18:57:54;;;;;;;11.10;6.97;;;;;;;26.32;55.14;98481.91;5060508;28;20040;-95
2022/07/29 19:00:20;;;;;;;10.27;6.40;;;;;;;26.25;55.09;98480.78;5060429;28;20237;-95
2022/07/29 19:02:46;;;;;;;9.73;6.07;;;;;;;26.19;54.94;98478.66;5062602;28;20044;-94
2022/07/29 19:05:12;;;;;;;17.27;7.03;;;;;;;26.11;55.76;98493.03;5063775;28;20045;-96
2022/07/29 19:07:37;;;;;;;9.75;6.32;;;;;;;26.05;56.04;98487.31;5062948;28;20105;-95
2022/07/29 19:10:06;;;;;;;10.18;6.28;;;;;;;26.03;55.96;98493.75;5062342;28;20048;-94
2022/07/29 19:12:32;;;;;;;10.60;6.82;;;;;;;26.01;56.63;98503.06;5060528;28;20502;-94